sensor_id;sensor_type;location;lat;lon;timestamp;P1;durP1;ratioP1;P2;durP2;ratioP2
74577;SDS011;63173;49.086;33.418;2023-02-28T00:00:12;12.73;;;6.00;;
74577;SDS011;63173;49.086;33.418;2023-02-28T00:02:42;16.17;;;7.10;;
74577;SDS011;63173;49.086;33.418;2023-02-28T00:05:09;15.45;;;6.88;;
74577;SDS011;63173;49.086;33.418;2023-02-28T00:07:37;18.17;;;6.75;;
74577;SDS011;63173;49.086;33.418;2023-02-28T00:10:03;15.90;;;6.38;;
74577;SDS011;63173;49.086;33.418;2023-02-28T00:12:31;21.17;;;7.85;;
74577;SDS011;63173;49.086;33.418;2023-02-28T00:14:57;15.65;;;7.07;;
74577;SDS011;63173;49.086;33.418;2023-02-28T00:17:22;15.13;;;5.65;;
74577;SDS011;63173;49.086;33.418;2023-02-28T00:19:48;17.38;;;6.47;;
74577;SDS011;63173;49.086;33.418;2023-02-28T00:22:15;17.27;;;6.85;;
74577;SDS011;63173;49.086;33.418;2023-02-28T00:24:41;13.75;;;5.90;;
74577;SDS011;63173;49.086;33.418;2023-02-28T00:27:06;14.88;;;6.38;;
74577;SDS011;63173;49.086;33.418;2023-02-28T00:29:32;13.90;;;5.78;;
74577;SDS011;63173;49.086;33.418;2023-02-28T00:31:57;13.52;;;5.93;;
74577;SDS011;63173;49.086;33.418;2023-02-28T00:34:23;12.90;;;6.40;;
74577;SDS011;63173;49.086;33.418;2023-02-28T00:36:48;12.07;;;4.25;;
74577;SDS011;63173;49.086;33.418;2023-02-28T00:39:14;13.95;;;5.65;;
74577;SDS011;63173;49.086;33.418;2023-02-28T00:41:40;14.60;;;6.03;;
74577;SDS011;63173;49.086;33.418;2023-02-28T00:44:05;10.70;;;4.78;;
74577;SDS011;63173;49.086;33.418;2023-02-28T00:46:31;11.98;;;4.45;;
74577;SDS011;63173;49.086;33.418;2023-02-28T00:48:56;12.63;;;5.03;;
74577;SDS011;63173;49.086;33.418;2023-02-28T00:51:21;14.02;;;4.85;;
74577;SDS011;63173;49.086;33.418;2023-02-28T00:53:47;12.00;;;5.13;;
74577;SDS011;63173;49.086;33.418;2023-02-28T00:56:12;14.05;;;6.22;;
74577;SDS011;63173;49.086;33.418;2023-02-28T00:58:38;13.73;;;6.43;;
74577;SDS011;63173;49.086;33.418;2023-02-28T01:01:04;11.50;;;4.93;;
74577;SDS011;63173;49.086;33.418;2023-02-28T01:03:29;11.52;;;5.57;;
74577;SDS011;63173;49.086;33.418;2023-02-28T01:05:55;14.10;;;6.38;;
74577;SDS011;63173;49.086;33.418;2023-02-28T01:08:20;12.77;;;5.65;;
74577;SDS011;63173;49.086;33.418;2023-02-28T01:10:46;12.20;;;4.72;;
74577;SDS011;63173;49.086;33.418;2023-02-28T01:13:12;15.05;;;5.88;;
74577;SDS011;63173;49.086;33.418;2023-02-28T01:15:39;14.10;;;5.55;;
74577;SDS011;63173;49.086;33.418;2023-02-28T01:18:08;13.80;;;6.05;;
74577;SDS011;63173;49.086;33.418;2023-02-28T01:20:36;11.70;;;4.53;;
74577;SDS011;63173;49.086;33.418;2023-02-28T01:23:02;13.02;;;5.82;;
74577;SDS011;63173;49.086;33.418;2023-02-28T01:25:27;16.27;;;6.05;;
74577;SDS011;63173;49.086;33.418;2023-02-28T01:27:53;13.48;;;5.82;;
74577;SDS011;63173;49.086;33.418;2023-02-28T01:30:18;13.82;;;5.45;;
74577;SDS011;63173;49.086;33.418;2023-02-28T01:32:44;14.57;;;5.65;;
74577;SDS011;63173;49.086;33.418;2023-02-28T01:35:09;14.90;;;6.47;;
74577;SDS011;63173;49.086;33.418;2023-02-28T01:37:35;10.55;;;4.57;;
74577;SDS011;63173;49.086;33.418;2023-02-28T01:40:00;14.15;;;5.40;;
74577;SDS011;63173;49.086;33.418;2023-02-28T01:42:26;13.73;;;6.15;;
74577;SDS011;63173;49.086;33.418;2023-02-28T01:44:55;12.30;;;5.22;;
74577;SDS011;63173;49.086;33.418;2023-02-28T01:47:38;15.93;;;7.35;;
74577;SDS011;63173;49.086;33.418;2023-02-28T01:50:09;13.65;;;6.25;;
74577;SDS011;63173;49.086;33.418;2023-02-28T01:52:39;13.88;;;6.63;;
74577;SDS011;63173;49.086;33.418;2023-02-28T01:55:06;12.45;;;5.35;;
74577;SDS011;63173;49.086;33.418;2023-02-28T01:57:38;16.17;;;7.10;;
74577;SDS011;63173;49.086;33.418;2023-02-28T02:00:12;14.45;;;7.07;;
74577;SDS011;63173;49.086;33.418;2023-02-28T02:02:43;17.15;;;7.30;;
74577;SDS011;63173;49.086;33.418;2023-02-28T02:05:14;12.30;;;5.63;;
74577;SDS011;63173;49.086;33.418;2023-02-28T02:07:43;19.38;;;7.15;;
74577;SDS011;63173;49.086;33.418;2023-02-28T02:10:20;11.98;;;5.32;;
74577;SDS011;63173;49.086;33.418;2023-02-28T02:13:05;12.60;;;5.82;;
74577;SDS011;63173;49.086;33.418;2023-02-28T02:18:51;13.38;;;5.65;;
74577;SDS011;63173;49.086;33.418;2023-02-28T02:29:41;12.38;;;5.43;;
74577;SDS011;63173;49.086;33.418;2023-02-28T02:38:17;9.88;;;4.57;;
74577;SDS011;63173;49.086;33.418;2023-02-28T02:43:29;10.65;;;4.72;;
74577;SDS011;63173;49.086;33.418;2023-02-28T02:48:58;10.90;;;5.07;;
74577;SDS011;63173;49.086;33.418;2023-02-28T02:51:28;12.93;;;5.43;;
74577;SDS011;63173;49.086;33.418;2023-02-28T02:53:59;13.73;;;5.55;;
74577;SDS011;63173;49.086;33.418;2023-02-28T02:56:30;12.45;;;4.90;;
74577;SDS011;63173;49.086;33.418;2023-02-28T02:59:00;11.93;;;5.03;;
74577;SDS011;63173;49.086;33.418;2023-02-28T03:01:31;9.25;;;4.10;;
74577;SDS011;63173;49.086;33.418;2023-02-28T03:04:00;10.32;;;4.80;;
74577;SDS011;63173;49.086;33.418;2023-02-28T03:06:27;8.43;;;4.10;;
74577;SDS011;63173;49.086;33.418;2023-02-28T03:08:53;8.40;;;4.30;;
74577;SDS011;63173;49.086;33.418;2023-02-28T03:11:19;10.85;;;4.75;;
74577;SDS011;63173;49.086;33.418;2023-02-28T03:27:27;11.35;;;5.13;;
74577;SDS011;63173;49.086;33.418;2023-02-28T03:30:06;12.13;;;5.43;;
74577;SDS011;63173;49.086;33.418;2023-02-28T03:32:42;12.82;;;4.90;;
74577;SDS011;63173;49.086;33.418;2023-02-28T03:35:20;9.98;;;4.45;;
74577;SDS011;63173;49.086;33.418;2023-02-28T03:37:53;9.38;;;4.20;;
74577;SDS011;63173;49.086;33.418;2023-02-28T03:40:26;12.68;;;5.50;;
74577;SDS011;63173;49.086;33.418;2023-02-28T03:42:57;11.13;;;4.95;;
74577;SDS011;63173;49.086;33.418;2023-02-28T03:45:28;10.52;;;4.45;;
74577;SDS011;63173;49.086;33.418;2023-02-28T03:47:57;11.65;;;4.82;;
74577;SDS011;63173;49.086;33.418;2023-02-28T03:50:34;12.05;;;5.28;;
74577;SDS011;63173;49.086;33.418;2023-02-28T03:56:02;12.20;;;5.45;;
74577;SDS011;63173;49.086;33.418;2023-02-28T03:58:43;10.30;;;4.18;;
74577;SDS011;63173;49.086;33.418;2023-02-28T04:01:20;11.93;;;5.32;;
74577;SDS011;63173;49.086;33.418;2023-02-28T04:03:50;9.77;;;4.32;;
74577;SDS011;63173;49.086;33.418;2023-02-28T04:06:17;11.40;;;5.07;;
74577;SDS011;63173;49.086;33.418;2023-02-28T04:08:44;12.48;;;5.40;;
74577;SDS011;63173;49.086;33.418;2023-02-28T04:11:18;14.65;;;5.32;;
74577;SDS011;63173;49.086;33.418;2023-02-28T04:13:47;13.95;;;5.57;;
74577;SDS011;63173;49.086;33.418;2023-02-28T04:16:13;13.18;;;5.57;;
74577;SDS011;63173;49.086;33.418;2023-02-28T04:18:39;12.05;;;5.68;;
74577;SDS011;63173;49.086;33.418;2023-02-28T04:21:05;10.02;;;4.00;;
74577;SDS011;63173;49.086;33.418;2023-02-28T04:23:31;12.50;;;5.25;;
74577;SDS011;63173;49.086;33.418;2023-02-28T04:25:57;12.38;;;5.63;;
74577;SDS011;63173;49.086;33.418;2023-02-28T04:28:22;15.18;;;5.82;;
74577;SDS011;63173;49.086;33.418;2023-02-28T04:30:53;18.30;;;6.45;;
74577;SDS011;63173;49.086;33.418;2023-02-28T04:33:22;11.77;;;5.03;;
74577;SDS011;63173;49.086;33.418;2023-02-28T04:35:47;13.27;;;5.07;;
74577;SDS011;63173;49.086;33.418;2023-02-28T04:38:13;12.48;;;5.65;;
74577;SDS011;63173;49.086;33.418;2023-02-28T04:40:38;10.75;;;4.25;;
74577;SDS011;63173;49.086;33.418;2023-02-28T04:43:03;13.38;;;5.50;;
74577;SDS011;63173;49.086;33.418;2023-02-28T04:45:29;13.73;;;5.32;;
74577;SDS011;63173;49.086;33.418;2023-02-28T04:47:57;13.15;;;5.10;;
74577;SDS011;63173;49.086;33.418;2023-02-28T04:50:23;15.63;;;6.05;;
74577;SDS011;63173;49.086;33.418;2023-02-28T04:52:48;11.85;;;4.93;;
74577;SDS011;63173;49.086;33.418;2023-02-28T04:55:14;13.30;;;5.60;;
74577;SDS011;63173;49.086;33.418;2023-02-28T04:57:39;14.23;;;5.43;;
74577;SDS011;63173;49.086;33.418;2023-02-28T05:00:08;12.30;;;5.72;;
74577;SDS011;63173;49.086;33.418;2023-02-28T05:02:36;12.70;;;5.90;;
74577;SDS011;63173;49.086;33.418;2023-02-28T05:05:04;9.98;;;4.72;;
74577;SDS011;63173;49.086;33.418;2023-02-28T05:07:30;14.27;;;5.90;;
74577;SDS011;63173;49.086;33.418;2023-02-28T05:09:55;15.55;;;6.93;;
74577;SDS011;63173;49.086;33.418;2023-02-28T05:12:20;16.90;;;7.00;;
74577;SDS011;63173;49.086;33.418;2023-02-28T05:14:46;12.68;;;5.53;;
74577;SDS011;63173;49.086;33.418;2023-02-28T05:17:11;13.32;;;5.50;;
74577;SDS011;63173;49.086;33.418;2023-02-28T05:19:37;14.52;;;6.45;;
74577;SDS011;63173;49.086;33.418;2023-02-28T05:22:02;13.25;;;5.55;;
74577;SDS011;63173;49.086;33.418;2023-02-28T05:24:28;13.52;;;5.78;;
74577;SDS011;63173;49.086;33.418;2023-02-28T05:26:53;16.42;;;6.38;;
74577;SDS011;63173;49.086;33.418;2023-02-28T05:29:19;16.55;;;6.57;;
74577;SDS011;63173;49.086;33.418;2023-02-28T05:31:45;13.00;;;5.50;;
74577;SDS011;63173;49.086;33.418;2023-02-28T05:34:10;14.38;;;6.18;;
74577;SDS011;63173;49.086;33.418;2023-02-28T05:36:37;14.85;;;5.88;;
74577;SDS011;63173;49.086;33.418;2023-02-28T05:39:04;14.93;;;6.40;;
74577;SDS011;63173;49.086;33.418;2023-02-28T05:41:31;11.10;;;4.78;;
74577;SDS011;63173;49.086;33.418;2023-02-28T05:43:57;12.18;;;5.65;;
74577;SDS011;63173;49.086;33.418;2023-02-28T05:46:22;12.00;;;5.38;;
74577;SDS011;63173;49.086;33.418;2023-02-28T05:48:48;15.88;;;5.72;;
74577;SDS011;63173;49.086;33.418;2023-02-28T05:51:16;11.10;;;5.03;;
74577;SDS011;63173;49.086;33.418;2023-02-28T05:53:42;9.80;;;4.43;;
74577;SDS011;63173;49.086;33.418;2023-02-28T05:56:07;14.30;;;6.40;;
74577;SDS011;63173;49.086;33.418;2023-02-28T05:58:33;12.55;;;5.13;;
74577;SDS011;63173;49.086;33.418;2023-02-28T06:00:59;13.13;;;5.60;;
74577;SDS011;63173;49.086;33.418;2023-02-28T06:03:26;14.50;;;5.88;;
74577;SDS011;63173;49.086;33.418;2023-02-28T06:05:52;14.55;;;5.05;;
74577;SDS011;63173;49.086;33.418;2023-02-28T06:08:17;15.10;;;5.78;;
74577;SDS011;63173;49.086;33.418;2023-02-28T06:10:43;16.27;;;5.63;;
74577;SDS011;63173;49.086;33.418;2023-02-28T06:13:10;12.10;;;5.45;;
74577;SDS011;63173;49.086;33.418;2023-02-28T06:15:37;18.02;;;6.68;;
74577;SDS011;63173;49.086;33.418;2023-02-28T06:18:03;14.75;;;6.07;;
74577;SDS011;63173;49.086;33.418;2023-02-28T06:20:29;15.63;;;5.90;;
74577;SDS011;63173;49.086;33.418;2023-02-28T06:22:57;14.85;;;5.55;;
74577;SDS011;63173;49.086;33.418;2023-02-28T06:25:24;11.57;;;5.57;;
74577;SDS011;63173;49.086;33.418;2023-02-28T06:27:50;14.32;;;5.90;;
74577;SDS011;63173;49.086;33.418;2023-02-28T06:30:16;12.68;;;5.85;;
74577;SDS011;63173;49.086;33.418;2023-02-28T06:32:42;13.90;;;6.10;;
74577;SDS011;63173;49.086;33.418;2023-02-28T06:35:07;19.60;;;7.45;;
74577;SDS011;63173;49.086;33.418;2023-02-28T06:37:33;15.60;;;6.65;;
74577;SDS011;63173;49.086;33.418;2023-02-28T06:39:58;14.57;;;6.32;;
74577;SDS011;63173;49.086;33.418;2023-02-28T06:42:24;16.33;;;6.70;;
74577;SDS011;63173;49.086;33.418;2023-02-28T06:44:53;14.77;;;6.13;;
74577;SDS011;63173;49.086;33.418;2023-02-28T06:47:21;13.43;;;5.22;;
74577;SDS011;63173;49.086;33.418;2023-02-28T06:49:47;15.25;;;6.03;;
74577;SDS011;63173;49.086;33.418;2023-02-28T06:52:12;14.90;;;6.60;;
74577;SDS011;63173;49.086;33.418;2023-02-28T06:54:40;11.95;;;5.60;;
74577;SDS011;63173;49.086;33.418;2023-02-28T06:57:06;11.73;;;5.60;;
74577;SDS011;63173;49.086;33.418;2023-02-28T06:59:31;12.68;;;6.28;;
74577;SDS011;63173;49.086;33.418;2023-02-28T07:01:57;14.85;;;6.40;;
74577;SDS011;63173;49.086;33.418;2023-02-28T07:04:22;12.38;;;5.70;;
74577;SDS011;63173;49.086;33.418;2023-02-28T07:06:48;13.77;;;5.55;;
74577;SDS011;63173;49.086;33.418;2023-02-28T07:09:13;12.90;;;5.45;;
74577;SDS011;63173;49.086;33.418;2023-02-28T07:11:39;13.68;;;5.00;;
74577;SDS011;63173;49.086;33.418;2023-02-28T07:14:05;13.93;;;4.72;;
74577;SDS011;63173;49.086;33.418;2023-02-28T07:16:31;12.20;;;4.93;;
74577;SDS011;63173;49.086;33.418;2023-02-28T07:18:57;11.07;;;4.70;;
74577;SDS011;63173;49.086;33.418;2023-02-28T07:21:22;13.90;;;5.35;;
74577;SDS011;63173;49.086;33.418;2023-02-28T07:23:48;9.00;;;4.22;;
74577;SDS011;63173;49.086;33.418;2023-02-28T07:26:15;12.60;;;5.07;;
74577;SDS011;63173;49.086;33.418;2023-02-28T07:28:42;13.30;;;5.78;;
74577;SDS011;63173;49.086;33.418;2023-02-28T07:31:09;13.77;;;5.53;;
74577;SDS011;63173;49.086;33.418;2023-02-28T07:33:35;12.95;;;4.93;;
74577;SDS011;63173;49.086;33.418;2023-02-28T07:36:01;12.73;;;5.13;;
74577;SDS011;63173;49.086;33.418;2023-02-28T07:38:33;9.00;;;4.18;;
74577;SDS011;63173;49.086;33.418;2023-02-28T07:41:00;12.15;;;4.95;;
74577;SDS011;63173;49.086;33.418;2023-02-28T07:43:29;12.40;;;5.53;;
74577;SDS011;63173;49.086;33.418;2023-02-28T07:45:55;9.00;;;4.00;;
74577;SDS011;63173;49.086;33.418;2023-02-28T07:48:20;9.77;;;4.38;;
74577;SDS011;63173;49.086;33.418;2023-02-28T07:50:54;17.08;;;7.00;;
74577;SDS011;63173;49.086;33.418;2023-02-28T07:53:20;13.73;;;6.32;;
74577;SDS011;63173;49.086;33.418;2023-02-28T07:55:46;12.40;;;5.43;;
74577;SDS011;63173;49.086;33.418;2023-02-28T07:58:11;19.38;;;6.15;;
74577;SDS011;63173;49.086;33.418;2023-02-28T08:00:36;15.95;;;5.70;;
74577;SDS011;63173;49.086;33.418;2023-02-28T08:03:02;16.38;;;4.88;;
74577;SDS011;63173;49.086;33.418;2023-02-28T08:05:28;14.75;;;5.45;;
74577;SDS011;63173;49.086;33.418;2023-02-28T08:07:53;14.77;;;5.50;;
74577;SDS011;63173;49.086;33.418;2023-02-28T08:10:18;15.05;;;5.75;;
74577;SDS011;63173;49.086;33.418;2023-02-28T08:12:44;16.25;;;7.00;;
74577;SDS011;63173;49.086;33.418;2023-02-28T08:15:10;13.95;;;5.63;;
74577;SDS011;63173;49.086;33.418;2023-02-28T08:17:36;13.10;;;5.65;;
74577;SDS011;63173;49.086;33.418;2023-02-28T08:20:01;15.65;;;6.80;;
74577;SDS011;63173;49.086;33.418;2023-02-28T08:22:28;16.58;;;7.80;;
74577;SDS011;63173;49.086;33.418;2023-02-28T08:24:54;11.75;;;4.97;;
74577;SDS011;63173;49.086;33.418;2023-02-28T08:27:20;12.63;;;5.45;;
74577;SDS011;63173;49.086;33.418;2023-02-28T08:29:45;13.25;;;5.28;;
74577;SDS011;63173;49.086;33.418;2023-02-28T08:32:11;13.82;;;5.75;;
74577;SDS011;63173;49.086;33.418;2023-02-28T08:34:38;10.00;;;3.75;;
74577;SDS011;63173;49.086;33.418;2023-02-28T08:37:04;12.15;;;5.40;;
74577;SDS011;63173;49.086;33.418;2023-02-28T08:39:29;11.05;;;4.95;;
74577;SDS011;63173;49.086;33.418;2023-02-28T08:41:55;11.65;;;5.25;;
74577;SDS011;63173;49.086;33.418;2023-02-28T08:44:20;15.82;;;6.18;;
74577;SDS011;63173;49.086;33.418;2023-02-28T08:46:45;12.10;;;5.03;;
74577;SDS011;63173;49.086;33.418;2023-02-28T08:49:11;13.35;;;6.00;;
74577;SDS011;63173;49.086;33.418;2023-02-28T08:51:36;13.75;;;5.80;;
74577;SDS011;63173;49.086;33.418;2023-02-28T08:54:03;11.10;;;4.97;;
74577;SDS011;63173;49.086;33.418;2023-02-28T08:56:29;12.65;;;4.60;;
74577;SDS011;63173;49.086;33.418;2023-02-28T08:58:55;11.30;;;5.00;;
74577;SDS011;63173;49.086;33.418;2023-02-28T09:01:23;12.80;;;5.80;;
74577;SDS011;63173;49.086;33.418;2023-02-28T09:03:50;11.40;;;4.88;;
74577;SDS011;63173;49.086;33.418;2023-02-28T09:06:17;11.23;;;4.97;;
74577;SDS011;63173;49.086;33.418;2023-02-28T09:08:44;13.13;;;5.28;;
74577;SDS011;63173;49.086;33.418;2023-02-28T09:11:10;18.75;;;6.13;;
74577;SDS011;63173;49.086;33.418;2023-02-28T09:13:36;8.75;;;3.40;;
74577;SDS011;63173;49.086;33.418;2023-02-28T09:16:03;10.30;;;4.65;;
74577;SDS011;63173;49.086;33.418;2023-02-28T09:18:30;10.02;;;4.25;;
74577;SDS011;63173;49.086;33.418;2023-02-28T09:20:56;6.45;;;2.70;;
74577;SDS011;63173;49.086;33.418;2023-02-28T09:23:23;10.68;;;4.53;;
74577;SDS011;63173;49.086;33.418;2023-02-28T09:25:53;13.80;;;6.25;;
74577;SDS011;63173;49.086;33.418;2023-02-28T09:28:19;14.27;;;5.43;;
74577;SDS011;63173;49.086;33.418;2023-02-28T09:30:47;12.13;;;4.68;;
74577;SDS011;63173;49.086;33.418;2023-02-28T09:33:14;10.63;;;5.07;;
74577;SDS011;63173;49.086;33.418;2023-02-28T09:35:41;9.35;;;4.43;;
74577;SDS011;63173;49.086;33.418;2023-02-28T09:38:07;13.02;;;5.03;;
74577;SDS011;63173;49.086;33.418;2023-02-28T09:40:35;12.82;;;5.03;;
74577;SDS011;63173;49.086;33.418;2023-02-28T09:43:04;11.45;;;5.20;;
74577;SDS011;63173;49.086;33.418;2023-02-28T09:45:32;13.23;;;5.85;;
74577;SDS011;63173;49.086;33.418;2023-02-28T09:48:03;13.38;;;5.47;;
74577;SDS011;63173;49.086;33.418;2023-02-28T09:50:42;13.80;;;5.75;;
74577;SDS011;63173;49.086;33.418;2023-02-28T09:53:26;10.13;;;4.93;;
74577;SDS011;63173;49.086;33.418;2023-02-28T09:56:04;12.80;;;5.30;;
74577;SDS011;63173;49.086;33.418;2023-02-28T10:06:22;11.20;;;4.63;;
74577;SDS011;63173;49.086;33.418;2023-02-28T10:11:47;10.60;;;4.47;;
74577;SDS011;63173;49.086;33.418;2023-02-28T10:14:16;10.13;;;4.35;;
74577;SDS011;63173;49.086;33.418;2023-02-28T10:19:38;13.18;;;5.32;;
74577;SDS011;63173;49.086;33.418;2023-02-28T10:22:15;12.00;;;5.43;;
74577;SDS011;63173;49.086;33.418;2023-02-28T10:24:55;14.02;;;5.78;;
74577;SDS011;63173;49.086;33.418;2023-02-28T10:27:29;9.65;;;3.83;;
74577;SDS011;63173;49.086;33.418;2023-02-28T10:29:57;13.35;;;6.22;;
74577;SDS011;63173;49.086;33.418;2023-02-28T10:32:34;12.15;;;5.53;;
74577;SDS011;63173;49.086;33.418;2023-02-28T10:37:37;13.50;;;5.70;;
74577;SDS011;63173;49.086;33.418;2023-02-28T10:40:04;10.27;;;4.78;;
74577;SDS011;63173;49.086;33.418;2023-02-28T10:42:31;9.50;;;4.50;;
74577;SDS011;63173;49.086;33.418;2023-02-28T10:47:34;10.65;;;4.65;;
74577;SDS011;63173;49.086;33.418;2023-02-28T10:50:22;14.90;;;5.80;;
74577;SDS011;63173;49.086;33.418;2023-02-28T10:52:53;10.52;;;4.53;;
74577;SDS011;63173;49.086;33.418;2023-02-28T10:55:20;15.73;;;5.38;;
74577;SDS011;63173;49.086;33.418;2023-02-28T10:57:48;8.90;;;4.40;;
74577;SDS011;63173;49.086;33.418;2023-02-28T11:00:16;10.13;;;4.82;;
74577;SDS011;63173;49.086;33.418;2023-02-28T11:02:44;14.02;;;4.45;;
74577;SDS011;63173;49.086;33.418;2023-02-28T11:07:52;14.30;;;5.90;;
74577;SDS011;63173;49.086;33.418;2023-02-28T11:10:19;16.20;;;6.95;;
74577;SDS011;63173;49.086;33.418;2023-02-28T11:12:46;13.82;;;6.25;;
74577;SDS011;63173;49.086;33.418;2023-02-28T11:17:57;13.90;;;6.47;;
74577;SDS011;63173;49.086;33.418;2023-02-28T11:20:46;12.57;;;5.93;;
74577;SDS011;63173;49.086;33.418;2023-02-28T11:23:15;16.83;;;6.97;;
74577;SDS011;63173;49.086;33.418;2023-02-28T11:25:46;13.48;;;4.72;;
74577;SDS011;63173;49.086;33.418;2023-02-28T11:28:24;20.98;;;5.82;;
74577;SDS011;63173;49.086;33.418;2023-02-28T11:30:59;14.27;;;5.63;;
74577;SDS011;63173;49.086;33.418;2023-02-28T11:33:27;12.93;;;5.78;;
74577;SDS011;63173;49.086;33.418;2023-02-28T11:35:57;15.55;;;7.13;;
74577;SDS011;63173;49.086;33.418;2023-02-28T11:38:26;12.98;;;5.78;;
74577;SDS011;63173;49.086;33.418;2023-02-28T12:02:36;12.90;;;6.45;;
74577;SDS011;63173;49.086;33.418;2023-02-28T12:05:23;11.18;;;5.07;;
74577;SDS011;63173;49.086;33.418;2023-02-28T12:14:43;16.35;;;6.80;;
74577;SDS011;63173;49.086;33.418;2023-02-28T12:19:21;9.27;;;3.95;;
74577;SDS011;63173;49.086;33.418;2023-02-28T12:27:13;7.07;;;3.23;;
74577;SDS011;63173;49.086;33.418;2023-02-28T12:29:49;8.35;;;4.40;;
74577;SDS011;63173;49.086;33.418;2023-02-28T12:32:35;8.98;;;4.22;;
74577;SDS011;63173;49.086;33.418;2023-02-28T12:37:37;8.40;;;4.28;;
74577;SDS011;63173;49.086;33.418;2023-02-28T12:40:06;10.13;;;3.80;;
74577;SDS011;63173;49.086;33.418;2023-02-28T12:42:42;14.35;;;5.40;;
74577;SDS011;63173;49.086;33.418;2023-02-28T12:48:17;14.10;;;6.30;;
74577;SDS011;63173;49.086;33.418;2023-02-28T12:50:47;19.65;;;8.48;;
74577;SDS011;63173;49.086;33.418;2023-02-28T13:02:09;13.50;;;5.57;;
74577;SDS011;63173;49.086;33.418;2023-02-28T13:04:52;11.43;;;5.47;;
74577;SDS011;63173;49.086;33.418;2023-02-28T13:09:56;11.85;;;5.18;;
74577;SDS011;63173;49.086;33.418;2023-02-28T13:12:23;14.27;;;6.47;;
74577;SDS011;63173;49.086;33.418;2023-02-28T13:14:49;15.88;;;6.55;;
74577;SDS011;63173;49.086;33.418;2023-02-28T13:17:19;12.23;;;5.72;;
74577;SDS011;63173;49.086;33.418;2023-02-28T13:22:20;10.60;;;5.13;;
74577;SDS011;63173;49.086;33.418;2023-02-28T13:25:50;20.27;;;7.75;;
74577;SDS011;63173;49.086;33.418;2023-02-28T13:27:51;18.33;;;6.18;;
74577;SDS011;63173;49.086;33.418;2023-02-28T13:33:37;16.42;;;6.30;;
74577;SDS011;63173;49.086;33.418;2023-02-28T13:38:42;17.10;;;6.57;;
74577;SDS011;63173;49.086;33.418;2023-02-28T13:44:01;16.95;;;7.07;;
74577;SDS011;63173;49.086;33.418;2023-02-28T13:46:27;12.20;;;5.63;;
74577;SDS011;63173;49.086;33.418;2023-02-28T13:48:53;13.38;;;6.00;;
74577;SDS011;63173;49.086;33.418;2023-02-28T13:51:38;18.75;;;7.82;;
74577;SDS011;63173;49.086;33.418;2023-02-28T13:54:16;17.15;;;8.45;;
74577;SDS011;63173;49.086;33.418;2023-02-28T13:56:51;12.73;;;5.85;;
74577;SDS011;63173;49.086;33.418;2023-02-28T13:59:33;12.90;;;6.47;;
74577;SDS011;63173;49.086;33.418;2023-02-28T14:02:19;17.38;;;6.93;;
74577;SDS011;63173;49.086;33.418;2023-02-28T14:05:13;13.57;;;6.90;;
74577;SDS011;63173;49.086;33.418;2023-02-28T14:07:45;21.25;;;7.78;;
74577;SDS011;63173;49.086;33.418;2023-02-28T14:10:33;18.63;;;7.32;;
74577;SDS011;63173;49.086;33.418;2023-02-28T14:13:12;16.35;;;7.78;;
74577;SDS011;63173;49.086;33.418;2023-02-28T14:15:39;11.82;;;5.32;;
74577;SDS011;63173;49.086;33.418;2023-02-28T14:18:20;16.45;;;7.53;;
74577;SDS011;63173;49.086;33.418;2023-02-28T14:29:22;14.32;;;7.18;;
74577;SDS011;63173;49.086;33.418;2023-02-28T14:37:51;14.20;;;6.78;;
74577;SDS011;63173;49.086;33.418;2023-02-28T14:40:36;11.57;;;5.15;;
74577;SDS011;63173;49.086;33.418;2023-02-28T14:43:04;17.95;;;8.10;;
74577;SDS011;63173;49.086;33.418;2023-02-28T14:45:42;17.90;;;8.90;;
74577;SDS011;63173;49.086;33.418;2023-02-28T14:48:09;14.07;;;7.15;;
74577;SDS011;63173;49.086;33.418;2023-02-28T14:50:35;23.70;;;9.20;;
74577;SDS011;63173;49.086;33.418;2023-02-28T14:53:02;18.85;;;8.73;;
74577;SDS011;63173;49.086;33.418;2023-02-28T14:55:29;17.05;;;6.68;;
74577;SDS011;63173;49.086;33.418;2023-02-28T14:57:57;20.40;;;8.43;;
74577;SDS011;63173;49.086;33.418;2023-02-28T15:00:26;14.23;;;6.40;;
74577;SDS011;63173;49.086;33.418;2023-02-28T15:02:54;14.38;;;6.93;;
74577;SDS011;63173;49.086;33.418;2023-02-28T15:05:33;20.63;;;7.97;;
74577;SDS011;63173;49.086;33.418;2023-02-28T15:10:31;26.15;;;10.52;;
74577;SDS011;63173;49.086;33.418;2023-02-28T15:13:02;33.70;;;13.07;;
74577;SDS011;63173;49.086;33.418;2023-02-28T15:18:46;31.52;;;12.75;;
74577;SDS011;63173;49.086;33.418;2023-02-28T15:21:15;30.83;;;13.07;;
74577;SDS011;63173;49.086;33.418;2023-02-28T15:24:15;23.20;;;9.27;;
74577;SDS011;63173;49.086;33.418;2023-02-28T15:26:41;21.48;;;9.23;;
74577;SDS011;63173;49.086;33.418;2023-02-28T15:29:15;21.52;;;9.68;;
74577;SDS011;63173;49.086;33.418;2023-02-28T15:31:45;23.42;;;10.00;;
74577;SDS011;63173;49.086;33.418;2023-02-28T15:34:20;24.60;;;10.25;;
74577;SDS011;63173;49.086;33.418;2023-02-28T15:36:47;27.17;;;10.80;;
74577;SDS011;63173;49.086;33.418;2023-02-28T15:39:21;22.40;;;9.32;;
74577;SDS011;63173;49.086;33.418;2023-02-28T15:41:48;24.95;;;11.05;;
74577;SDS011;63173;49.086;33.418;2023-02-28T15:44:18;27.00;;;11.60;;
74577;SDS011;63173;49.086;33.418;2023-02-28T15:49:23;19.83;;;9.15;;
74577;SDS011;63173;49.086;33.418;2023-02-28T15:51:50;28.17;;;10.18;;
74577;SDS011;63173;49.086;33.418;2023-02-28T15:54:23;23.85;;;10.48;;
74577;SDS011;63173;49.086;33.418;2023-02-28T15:56:52;23.02;;;10.65;;
74577;SDS011;63173;49.086;33.418;2023-02-28T15:59:21;26.25;;;11.00;;
74577;SDS011;63173;49.086;33.418;2023-02-28T16:02:33;20.70;;;9.45;;
74577;SDS011;63173;49.086;33.418;2023-02-28T16:04:54;23.40;;;10.27;;
74577;SDS011;63173;49.086;33.418;2023-02-28T16:07:21;27.52;;;11.25;;
74577;SDS011;63173;49.086;33.418;2023-02-28T16:09:46;22.98;;;10.95;;
74577;SDS011;63173;49.086;33.418;2023-02-28T16:12:13;23.60;;;10.48;;
74577;SDS011;63173;49.086;33.418;2023-02-28T16:14:38;30.23;;;13.63;;
74577;SDS011;63173;49.086;33.418;2023-02-28T16:17:06;34.22;;;13.80;;
74577;SDS011;63173;49.086;33.418;2023-02-28T16:19:37;28.73;;;13.43;;
74577;SDS011;63173;49.086;33.418;2023-02-28T16:22:02;30.92;;;12.88;;
74577;SDS011;63173;49.086;33.418;2023-02-28T16:24:28;32.83;;;13.80;;
74577;SDS011;63173;49.086;33.418;2023-02-28T16:26:53;29.08;;;12.88;;
74577;SDS011;63173;49.086;33.418;2023-02-28T16:29:26;30.60;;;13.85;;
74577;SDS011;63173;49.086;33.418;2023-02-28T16:31:54;30.83;;;12.85;;
74577;SDS011;63173;49.086;33.418;2023-02-28T16:34:21;40.85;;;17.42;;
74577;SDS011;63173;49.086;33.418;2023-02-28T16:36:47;42.70;;;18.67;;
74577;SDS011;63173;49.086;33.418;2023-02-28T16:39:13;40.63;;;16.88;;
74577;SDS011;63173;49.086;33.418;2023-02-28T16:41:39;39.65;;;18.13;;
74577;SDS011;63173;49.086;33.418;2023-02-28T16:46:35;34.83;;;14.43;;
74577;SDS011;63173;49.086;33.418;2023-02-28T16:49:01;35.20;;;15.70;;
74577;SDS011;63173;49.086;33.418;2023-02-28T16:51:27;32.70;;;13.30;;
74577;SDS011;63173;49.086;33.418;2023-02-28T16:53:52;32.03;;;13.82;;
74577;SDS011;63173;49.086;33.418;2023-02-28T16:56:19;32.08;;;14.25;;
74577;SDS011;63173;49.086;33.418;2023-02-28T16:58:47;35.42;;;15.52;;
74577;SDS011;63173;49.086;33.418;2023-02-28T17:01:13;37.97;;;15.77;;
74577;SDS011;63173;49.086;33.418;2023-02-28T17:03:40;39.00;;;16.73;;